createdAt,value
2022-08-31T00:00:08.800Z,21.95
2022-08-31T00:02:53.618Z,21.92
2022-08-31T00:05:21.687Z,21.89
2022-08-31T00:07:48.036Z,21.89
2022-08-31T00:10:14.588Z,21.91
2022-08-31T00:12:44.357Z,21.85
2022-08-31T00:15:11.345Z,21.83
2022-08-31T00:17:37.693Z,21.88
2022-08-31T00:20:31.652Z,21.83
2022-08-31T00:22:57.556Z,21.82
2022-08-31T00:25:24.069Z,21.74
2022-08-31T00:27:50.459Z,21.82
2022-08-31T00:30:16.823Z,21.81
2022-08-31T00:32:43.194Z,21.78
2022-08-31T00:35:09.660Z,21.74
2022-08-31T00:37:36.051Z,21.77
2022-08-31T00:40:02.493Z,21.80
2022-08-31T00:42:28.898Z,21.81
2022-08-31T00:44:55.286Z,21.75
2022-08-31T00:47:21.651Z,21.79
2022-08-31T00:49:50.164Z,21.77
2022-08-31T00:52:18.067Z,21.72
2022-08-31T00:54:45.960Z,21.74
2022-08-31T00:57:12.323Z,21.75
2022-08-31T00:59:39.063Z,21.75
2022-08-31T01:02:06.598Z,21.75
2022-08-31T01:04:33.104Z,21.71
2022-08-31T01:06:59.499Z,21.73
2022-08-31T01:09:26.649Z,21.80
2022-08-31T01:11:53.005Z,21.68
2022-08-31T01:14:19.373Z,21.62
2022-08-31T01:16:47.466Z,21.66
2022-08-31T01:19:17.757Z,21.65
2022-08-31T01:21:47.272Z,21.63
2022-08-31T01:24:13.656Z,21.70
2022-08-31T01:26:40.033Z,21.68
2022-08-31T01:29:06.777Z,21.59
2022-08-31T01:31:38.137Z,21.64
2022-08-31T01:34:04.614Z,21.65
2022-08-31T01:36:30.974Z,21.67
2022-08-31T01:38:57.369Z,21.67
2022-08-31T01:41:23.786Z,21.66
2022-08-31T01:43:50.210Z,21.61
2022-08-31T01:46:16.658Z,21.65
2022-08-31T01:48:43.333Z,21.65
2022-08-31T01:51:10.787Z,21.64
2022-08-31T01:53:40.116Z,21.64
2022-08-31T01:56:12.795Z,21.60
2022-08-31T01:58:39.173Z,21.61
2022-08-31T02:01:33.596Z,21.58
2022-08-31T02:04:00.020Z,21.61
2022-08-31T02:06:26.418Z,21.54
2022-08-31T02:08:52.806Z,21.56
2022-08-31T02:11:19.380Z,21.51
2022-08-31T02:13:45.767Z,21.47
2022-08-31T02:16:14.543Z,21.49
2022-08-31T02:18:41.432Z,21.51
2022-08-31T02:21:07.854Z,21.53
2022-08-31T02:23:34.225Z,21.49
2022-08-31T02:26:00.591Z,21.54
2022-08-31T02:28:26.961Z,21.52
2022-08-31T02:30:54.766Z,21.57
2022-08-31T02:33:21.174Z,21.49
2022-08-31T02:35:50.320Z,21.50
2022-08-31T02:38:19.986Z,21.55
2022-08-31T02:40:49.140Z,21.52
2022-08-31T02:43:19.409Z,21.51
2022-08-31T02:45:53.839Z,21.53
2022-08-31T02:48:24.912Z,21.55
2022-08-31T02:50:51.535Z,21.50
2022-08-31T02:53:18.780Z,21.47
2022-08-31T02:55:45.581Z,21.50
2022-08-31T02:58:12.015Z,21.56
2022-08-31T03:00:38.839Z,21.51
2022-08-31T03:03:05.476Z,21.48
2022-08-31T03:05:31.995Z,21.30
2022-08-31T03:07:58.410Z,21.37
2022-08-31T03:10:24.869Z,21.39
2022-08-31T03:12:51.250Z,21.41
2022-08-31T03:15:17.891Z,21.38
2022-08-31T03:17:45.443Z,21.40
2022-08-31T03:20:11.885Z,21.40
2022-08-31T03:22:38.257Z,21.44
2022-08-31T03:25:05.042Z,21.41
2022-08-31T03:27:31.598Z,21.47
2022-08-31T03:29:57.983Z,21.44
2022-08-31T03:32:27.486Z,21.40
2022-08-31T03:34:55.647Z,21.43
2022-08-31T03:37:22.031Z,21.46
2022-08-31T03:39:49.313Z,21.45
2022-08-31T03:42:16.477Z,21.47
2022-08-31T03:44:42.857Z,21.43
2022-08-31T03:47:17.651Z,21.44
2022-08-31T03:49:44.458Z,21.45
2022-08-31T03:52:21.653Z,21.40
2022-08-31T03:54:55.950Z,21.41
2022-08-31T03:57:22.779Z,21.40
2022-08-31T03:59:52.103Z,21.34
2022-08-31T04:02:18.536Z,21.41
2022-08-31T04:05:08.234Z,21.42
2022-08-31T04:07:53.314Z,21.33
2022-08-31T04:10:42.369Z,21.38
2022-08-31T04:13:30.211Z,21.36
2022-08-31T04:16:35.713Z,21.34
2022-08-31T04:19:20.990Z,21.34
2022-08-31T04:21:57.219Z,21.33
2022-08-31T04:24:24.017Z,21.34
2022-08-31T04:26:50.897Z,21.32
2022-08-31T04:29:17.364Z,21.30
2022-08-31T04:31:44.533Z,21.26
2022-08-31T04:34:11.615Z,21.28
2022-08-31T04:36:37.975Z,21.29
2022-08-31T04:39:04.391Z,21.29
2022-08-31T04:41:31.374Z,21.30
2022-08-31T04:43:58.368Z,21.30
2022-08-31T04:46:25.479Z,21.30
2022-08-31T04:48:53.018Z,21.28
2022-08-31T04:51:20.357Z,21.26
2022-08-31T04:53:46.725Z,21.25
2022-08-31T04:56:14.561Z,21.28
2022-08-31T04:58:42.624Z,21.27
2022-08-31T05:01:09.679Z,21.28
2022-08-31T05:03:56.309Z,21.26
2022-08-31T05:06:27.087Z,21.25
2022-08-31T05:08:54.382Z,21.28
2022-08-31T05:11:24.865Z,21.32
2022-08-31T05:13:52.639Z,21.26
2022-08-31T05:16:19.612Z,21.28
2022-08-31T05:18:46.853Z,21.37
2022-08-31T05:21:16.835Z,21.26
2022-08-31T05:23:43.329Z,21.37
2022-08-31T05:26:10.182Z,21.45
2022-08-31T05:28:36.852Z,21.48
2022-08-31T05:31:03.439Z,21.49
2022-08-31T05:33:35.206Z,21.43
2022-08-31T05:36:02.282Z,21.43
2022-08-31T05:38:28.765Z,21.44
2022-08-31T05:40:55.430Z,21.37
2022-08-31T05:43:22.590Z,21.38
2022-08-31T05:45:49.025Z,21.34
2022-08-31T05:48:15.499Z,21.42
2022-08-31T05:50:41.891Z,21.39
2022-08-31T05:53:08.287Z,21.41
2022-08-31T05:55:34.662Z,21.32
2022-08-31T05:58:01.147Z,21.23
2022-08-31T06:00:27.514Z,21.19
2022-08-31T06:03:09.310Z,21.24
2022-08-31T06:05:35.870Z,21.21
2022-08-31T06:08:02.501Z,21.14
2022-08-31T06:10:32.315Z,21.11
2022-08-31T06:12:58.792Z,20.93
2022-08-31T06:15:25.187Z,20.67
2022-08-31T06:17:51.596Z,20.64
2022-08-31T06:20:18.365Z,20.56
2022-08-31T06:22:46.478Z,20.71
2022-08-31T06:25:19.266Z,20.86
2022-08-31T06:27:49.082Z,21.04
2022-08-31T06:30:19.596Z,21.07
2022-08-31T06:32:46.521Z,20.80
2022-08-31T06:35:13.038Z,20.89
2022-08-31T06:38:05.248Z,20.88
2022-08-31T06:40:47.995Z,21.00
2022-08-31T06:43:44.198Z,20.92
2022-08-31T06:46:48.923Z,20.73
2022-08-31T06:49:19.487Z,21.15
2022-08-31T06:51:45.905Z,21.31
2022-08-31T06:54:29.848Z,21.26
2022-08-31T06:57:15.366Z,21.29
2022-08-31T07:00:00.121Z,20.90
2022-08-31T07:02:34.731Z,20.70
2022-08-31T07:05:01.126Z,20.29
2022-08-31T07:07:27.504Z,20.71
2022-08-31T07:09:53.935Z,21.09
2022-08-31T07:12:20.386Z,21.16
2022-08-31T07:14:50.158Z,21.39
2022-08-31T07:17:21.929Z,22.03
2022-08-31T07:19:48.455Z,22.01
2022-08-31T07:22:16.297Z,21.65
2022-08-31T07:24:45.238Z,21.44
2022-08-31T07:27:12.987Z,21.59
2022-08-31T07:29:45.115Z,21.85
2022-08-31T07:32:13.886Z,21.80
2022-08-31T07:34:41.069Z,21.87
2022-08-31T07:37:44.134Z,21.79
2022-08-31T07:40:30.553Z,21.74
2022-08-31T07:42:57.009Z,21.59
2022-08-31T07:45:25.841Z,21.57
2022-08-31T07:47:56.486Z,21.60
2022-08-31T07:50:27.315Z,21.56
2022-08-31T07:53:00.281Z,21.62
2022-08-31T07:55:45.701Z,21.62
2022-08-31T07:58:31.719Z,21.62
2022-08-31T08:01:02.998Z,21.62
2022-08-31T08:03:30.012Z,21.63
2022-08-31T08:06:16.829Z,21.60
2022-08-31T08:09:24.672Z,21.54
2022-08-31T08:12:01.075Z,21.58
2022-08-31T08:14:39.757Z,21.66
2022-08-31T08:17:38.150Z,22.12
2022-08-31T08:20:13.356Z,21.90
2022-08-31T08:22:54.147Z,21.72
2022-08-31T08:25:30.913Z,21.95
2022-08-31T08:28:38.254Z,22.26
2022-08-31T08:31:05.015Z,22.41
2022-08-31T08:33:31.752Z,22.46
2022-08-31T08:36:00.730Z,22.48
2022-08-31T08:38:30.779Z,22.53
2022-08-31T08:40:59.435Z,22.56
2022-08-31T08:43:33.013Z,22.57
2022-08-31T08:46:10.691Z,22.61
2022-08-31T08:48:47.007Z,22.63
2022-08-31T08:51:25.058Z,22.67
2022-08-31T08:53:58.569Z,22.72
2022-08-31T08:56:33.687Z,22.72
2022-08-31T08:59:02.137Z,22.71
2022-08-31T09:01:36.034Z,22.75
2022-08-31T09:04:06.955Z,22.79
2022-08-31T09:07:18.816Z,22.84
2022-08-31T09:09:47.184Z,22.77
2022-08-31T09:12:33.806Z,22.69
2022-08-31T09:15:07.113Z,22.76
2022-08-31T09:17:54.928Z,22.83
2022-08-31T09:20:27.221Z,22.86
2022-08-31T09:22:55.999Z,22.90
2022-08-31T09:25:32.663Z,22.91
2022-08-31T09:28:07.366Z,22.92
2022-08-31T09:30:35.743Z,22.85
2022-08-31T09:33:02.100Z,22.89
2022-08-31T09:35:40.206Z,22.89
2022-08-31T09:38:11.188Z,22.93
2022-08-31T09:40:39.069Z,22.85
2022-08-31T09:43:13.084Z,22.85
2022-08-31T09:45:50.711Z,22.90
2022-08-31T09:48:17.087Z,22.94
2022-08-31T09:50:47.018Z,22.96
2022-08-31T09:53:36.763Z,22.88
2022-08-31T09:56:05.835Z,22.91
2022-08-31T09:58:34.365Z,22.96
2022-08-31T10:01:12.695Z,23.06
2022-08-31T10:03:44.114Z,23.08
2022-08-31T10:06:43.999Z,23.11
2022-08-31T10:09:19.810Z,23.11
2022-08-31T10:11:47.551Z,23.11
2022-08-31T10:14:33.419Z,23.09
2022-08-31T10:17:10.757Z,22.93
2022-08-31T10:19:42.247Z,22.86
2022-08-31T10:22:18.225Z,22.91
2022-08-31T10:24:46.255Z,23.00
2022-08-31T10:27:13.138Z,22.88
2022-08-31T10:29:49.243Z,22.89
2022-08-31T10:32:24.566Z,22.98
2022-08-31T10:35:05.634Z,22.90
2022-08-31T10:37:36.621Z,22.80
2022-08-31T10:40:23.284Z,22.78
2022-08-31T10:43:00.445Z,22.74
2022-08-31T10:45:27.363Z,22.73
2022-08-31T10:47:54.232Z,22.82
2022-08-31T10:50:26.178Z,22.78
2022-08-31T10:53:00.592Z,22.79
2022-08-31T10:55:37.380Z,22.84
2022-08-31T10:58:22.811Z,22.82
2022-08-31T11:00:51.765Z,22.88
2022-08-31T11:03:22.513Z,22.83
2022-08-31T11:05:54.030Z,22.80
2022-08-31T11:08:29.700Z,22.77
2022-08-31T11:10:56.166Z,22.84
2022-08-31T11:13:36.182Z,22.88
2022-08-31T11:16:05.802Z,22.82
2022-08-31T11:18:41.077Z,22.78
2022-08-31T11:21:13.411Z,22.79
2022-08-31T11:23:54.502Z,22.84
2022-08-31T11:26:30.876Z,22.82
2022-08-31T11:29:09.987Z,22.82
2022-08-31T11:31:36.359Z,22.63
2022-08-31T11:34:16.160Z,22.69
2022-08-31T11:36:42.905Z,22.75
2022-08-31T11:39:09.171Z,22.83
2022-08-31T11:41:48.839Z,22.82
2022-08-31T11:44:30.558Z,22.77
2022-08-31T11:47:09.192Z,22.72
2022-08-31T11:49:39.926Z,22.71
2022-08-31T11:52:10.221Z,22.68
2022-08-31T11:54:42.722Z,22.74
2022-08-31T11:57:09.930Z,22.75
2022-08-31T11:59:37.507Z,22.73
2022-08-31T12:02:19.182Z,22.68
2022-08-31T12:04:48.323Z,22.68
2022-08-31T12:07:33.384Z,22.61
2022-08-31T12:10:14.751Z,22.59
2022-08-31T12:12:50.742Z,22.55
2022-08-31T12:15:28.533Z,22.50
2022-08-31T12:17:57.549Z,22.46
2022-08-31T12:21:01.660Z,22.38
2022-08-31T12:23:37.496Z,22.54
2022-08-31T12:26:15.349Z,22.51
2022-08-31T12:28:44.777Z,22.56
2022-08-31T12:31:12.681Z,22.51
2022-08-31T12:33:40.303Z,22.53
2022-08-31T12:36:13.867Z,22.47
2022-08-31T12:38:40.347Z,22.52
2022-08-31T12:41:06.977Z,23.17
2022-08-31T12:43:43.858Z,23.57
2022-08-31T12:46:29.359Z,23.88
2022-08-31T12:49:05.406Z,23.67
2022-08-31T12:51:50.561Z,23.59
2022-08-31T12:54:19.847Z,23.63
2022-08-31T12:56:58.592Z,23.65
2022-08-31T12:59:56.962Z,23.66
2022-08-31T13:02:20.487Z,23.67
2022-08-31T13:04:47.343Z,23.64
2022-08-31T13:07:20.171Z,23.58
2022-08-31T13:09:46.611Z,23.58
2022-08-31T13:12:21.347Z,23.62
2022-08-31T13:14:47.725Z,23.60
2022-08-31T13:17:18.086Z,23.61
2022-08-31T13:19:45.768Z,23.62
2022-08-31T13:22:16.893Z,23.58
2022-08-31T13:24:46.044Z,23.77
2022-08-31T13:27:20.205Z,24.00
2022-08-31T13:29:46.812Z,24.15
2022-08-31T13:32:33.445Z,24.28
2022-08-31T13:35:02.828Z,24.34
2022-08-31T13:37:31.314Z,24.25
2022-08-31T13:39:57.923Z,24.36
2022-08-31T13:42:36.563Z,24.33
2022-08-31T13:45:04.074Z,24.31
2022-08-31T13:47:31.957Z,24.32
2022-08-31T13:50:12.800Z,24.00
2022-08-31T13:52:40.102Z,23.91
2022-08-31T13:55:10.729Z,24.12
2022-08-31T13:57:38.183Z,24.18
2022-08-31T14:00:23.199Z,24.09
2022-08-31T14:02:49.661Z,24.18
2022-08-31T14:05:32.637Z,23.96
2022-08-31T14:08:02.219Z,23.91
2022-08-31T14:10:31.857Z,23.86
2022-08-31T14:13:02.646Z,24.37
2022-08-31T14:15:37.684Z,24.90
2022-08-31T14:18:25.741Z,25.09
2022-08-31T14:21:20.485Z,24.21
2022-08-31T14:23:54.380Z,24.27
2022-08-31T14:26:22.935Z,24.32
2022-08-31T14:28:50.263Z,24.22
2022-08-31T14:31:22.312Z,24.06
2022-08-31T14:33:50.246Z,23.94
2022-08-31T14:36:17.310Z,24.23
2022-08-31T14:38:44.724Z,24.18
2022-08-31T14:41:11.791Z,24.07
2022-08-31T14:43:39.154Z,23.98
2022-08-31T14:46:06.156Z,24.32
2022-08-31T14:48:35.095Z,24.34
2022-08-31T14:51:06.452Z,24.15
2022-08-31T14:53:37.611Z,24.06
2022-08-31T14:56:04.946Z,23.99
2022-08-31T14:58:32.042Z,24.00
2022-08-31T15:01:00.187Z,23.94
2022-08-31T15:03:33.987Z,23.96
2022-08-31T15:06:03.800Z,23.95
2022-08-31T15:08:38.139Z,23.99
2022-08-31T15:11:06.067Z,23.99
2022-08-31T15:13:33.970Z,24.08
2022-08-31T15:16:03.064Z,24.05
2022-08-31T15:18:33.634Z,24.00
2022-08-31T15:21:02.069Z,23.93
2022-08-31T15:23:29.553Z,24.02
2022-08-31T15:26:06.502Z,24.08
2022-08-31T15:28:33.469Z,24.08
2022-08-31T15:31:00.178Z,24.10
2022-08-31T15:33:26.926Z,24.08
2022-08-31T15:36:01.782Z,24.11
2022-08-31T15:38:28.148Z,23.88
2022-08-31T15:40:54.583Z,23.73
2022-08-31T15:43:20.988Z,24.02
2022-08-31T15:45:49.797Z,24.05
2022-08-31T15:48:34.813Z,24.07
2022-08-31T15:51:01.364Z,24.11
2022-08-31T15:53:30.400Z,24.14
2022-08-31T15:56:06.749Z,24.16
2022-08-31T15:58:33.733Z,24.19
2022-08-31T16:01:00.446Z,24.22
2022-08-31T16:03:32.085Z,24.24
2022-08-31T16:06:01.032Z,24.24
2022-08-31T16:08:27.929Z,24.11
2022-08-31T16:10:54.966Z,24.02
2022-08-31T16:13:21.447Z,23.74
2022-08-31T16:15:51.313Z,23.61
2022-08-31T16:18:18.518Z,23.53
2022-08-31T16:20:48.011Z,23.49
2022-08-31T16:23:14.515Z,23.50
2022-08-31T16:25:48.212Z,23.50
2022-08-31T16:28:16.211Z,23.44
2022-08-31T16:30:45.053Z,23.39
2022-08-31T16:33:12.147Z,23.39
2022-08-31T16:35:38.725Z,23.37
2022-08-31T16:38:05.895Z,23.35
2022-08-31T16:40:32.370Z,23.31
2022-08-31T16:42:58.821Z,23.29
2022-08-31T16:45:25.301Z,23.29
2022-08-31T16:48:11.772Z,23.27
2022-08-31T16:50:43.762Z,23.27
2022-08-31T16:53:10.182Z,23.25
2022-08-31T16:55:42.102Z,23.23
2022-08-31T16:58:08.719Z,23.26
2022-08-31T17:00:38.079Z,23.24
2022-08-31T17:03:04.730Z,23.23
2022-08-31T17:05:32.326Z,23.22
2022-08-31T17:07:58.927Z,23.23
2022-08-31T17:10:25.501Z,23.21
2022-08-31T17:12:52.431Z,23.20
2022-08-31T17:15:20.873Z,23.17
2022-08-31T17:17:48.167Z,23.19
2022-08-31T17:20:16.609Z,23.20
2022-08-31T17:22:47.261Z,23.20
2022-08-31T17:25:13.990Z,23.19
2022-08-31T17:27:40.486Z,23.19
2022-08-31T17:30:07.838Z,23.15
2022-08-31T17:32:36.520Z,23.14
2022-08-31T17:35:07.592Z,23.14
2022-08-31T17:37:36.390Z,23.16
2022-08-31T17:40:03.978Z,23.14
2022-08-31T17:42:30.722Z,23.13
2022-08-31T17:44:58.019Z,23.11
2022-08-31T17:47:25.007Z,23.07
2022-08-31T17:49:52.425Z,23.09
2022-08-31T17:52:20.621Z,23.08
2022-08-31T17:54:47.315Z,23.09
2022-08-31T17:57:14.001Z,23.10
2022-08-31T17:59:41.649Z,23.12
2022-08-31T18:02:09.693Z,23.12
2022-08-31T18:04:36.218Z,23.10
2022-08-31T18:07:02.709Z,23.09
2022-08-31T18:09:29.691Z,23.09
2022-08-31T18:11:56.150Z,23.09
2022-08-31T18:14:23.683Z,23.07
2022-08-31T18:16:50.725Z,23.05
2022-08-31T18:19:25.494Z,23.18
2022-08-31T18:21:55.468Z,23.44
2022-08-31T18:24:21.895Z,23.61
2022-08-31T18:26:48.508Z,22.17
2022-08-31T18:29:19.622Z,22.92
2022-08-31T18:31:49.971Z,23.21
2022-08-31T18:34:18.010Z,23.33
2022-08-31T18:36:45.558Z,23.31
2022-08-31T18:39:12.751Z,23.40
2022-08-31T18:41:57.930Z,23.20
2022-08-31T18:44:43.091Z,23.30
2022-08-31T18:47:10.259Z,23.51
2022-08-31T18:49:40.129Z,23.58
2022-08-31T18:52:06.819Z,23.35
2022-08-31T18:54:33.242Z,23.19
2022-08-31T18:57:00.624Z,23.20
2022-08-31T18:59:27.030Z,23.18
2022-08-31T19:01:53.506Z,23.14
2022-08-31T19:04:22.046Z,23.14
2022-08-31T19:06:48.645Z,23.12
2022-08-31T19:09:15.051Z,23.13
2022-08-31T19:11:51.333Z,23.10
2022-08-31T19:14:19.687Z,23.10
2022-08-31T19:16:46.935Z,23.08
2022-08-31T19:19:20.166Z,23.07
2022-08-31T19:21:46.618Z,23.07
2022-08-31T19:24:13.389Z,23.05
2022-08-31T19:26:40.730Z,23.04
2022-08-31T19:29:08.841Z,23.03
2022-08-31T19:31:36.159Z,23.01
2022-08-31T19:34:02.875Z,23.01
2022-08-31T19:36:32.082Z,22.99
2022-08-31T19:39:00.255Z,23.00
2022-08-31T19:41:26.818Z,22.99
2022-08-31T19:44:03.155Z,22.97
2022-08-31T19:46:34.010Z,22.96
2022-08-31T19:49:00.469Z,22.97
2022-08-31T19:51:27.313Z,22.95
2022-08-31T19:53:55.105Z,22.94
2022-08-31T19:56:24.499Z,22.94
2022-08-31T19:58:51.681Z,22.95
2022-08-31T20:01:19.556Z,22.98
2022-08-31T20:03:47.779Z,22.95
2022-08-31T20:06:15.128Z,22.91
2022-08-31T20:08:42.449Z,22.94
2022-08-31T20:11:09.387Z,22.96
2022-08-31T20:13:36.133Z,22.97
2022-08-31T20:16:04.656Z,22.94
2022-08-31T20:18:32.217Z,22.91
2022-08-31T20:21:00.983Z,22.91
2022-08-31T20:23:30.136Z,22.92
2022-08-31T20:25:56.826Z,22.88
2022-08-31T20:28:26.358Z,22.82
2022-08-31T20:30:55.234Z,22.90
2022-08-31T20:33:22.077Z,22.90
2022-08-31T20:35:48.574Z,22.84
2022-08-31T20:38:15.436Z,22.85
2022-08-31T20:40:42.200Z,22.82
2022-08-31T20:43:10.694Z,22.83
2022-08-31T20:45:37.664Z,22.82
2022-08-31T20:48:24.725Z,22.80
2022-08-31T20:50:51.179Z,22.80
2022-08-31T20:53:25.001Z,22.82
2022-08-31T20:56:06.904Z,22.80
2022-08-31T20:58:33.272Z,22.79
2022-08-31T21:01:02.999Z,22.79
2022-08-31T21:03:29.416Z,22.79
2022-08-31T21:05:55.802Z,22.79
2022-08-31T21:08:22.684Z,22.78
2022-08-31T21:10:49.050Z,22.84
2022-08-31T21:13:16.498Z,22.86
2022-08-31T21:15:43.840Z,22.88
2022-08-31T21:18:10.435Z,22.87
2022-08-31T21:20:37.473Z,22.88
2022-08-31T21:23:03.831Z,22.87
2022-08-31T21:25:30.790Z,22.86
2022-08-31T21:27:57.147Z,22.84
2022-08-31T21:30:23.591Z,22.81
2022-08-31T21:32:50.041Z,22.79
2022-08-31T21:35:16.393Z,22.78
2022-08-31T21:37:43.510Z,22.79
2022-08-31T21:40:10.364Z,22.79
2022-08-31T21:42:36.767Z,22.78
2022-08-31T21:45:03.125Z,22.77
2022-08-31T21:47:29.786Z,22.77
2022-08-31T21:49:56.136Z,22.77
2022-08-31T21:52:22.501Z,22.77
2022-08-31T21:54:48.860Z,22.77
2022-08-31T21:57:16.066Z,22.77
2022-08-31T21:59:42.426Z,22.76
2022-08-31T22:02:11.098Z,22.76
2022-08-31T22:04:38.814Z,22.75
2022-08-31T22:07:07.755Z,22.81
2022-08-31T22:09:34.865Z,22.80
2022-08-31T22:12:07.269Z,22.82
2022-08-31T22:14:36.076Z,22.81
2022-08-31T22:17:06.209Z,22.81
2022-08-31T22:19:36.708Z,22.80
2022-08-31T22:22:03.815Z,22.79
2022-08-31T22:24:31.507Z,22.79
2022-08-31T22:27:01.375Z,22.75
2022-08-31T22:29:28.741Z,22.74
2022-08-31T22:31:56.236Z,22.73
2022-08-31T22:34:22.622Z,22.77
2022-08-31T22:36:50.430Z,22.76
2022-08-31T22:39:17.196Z,22.74
2022-08-31T22:41:43.552Z,22.72
2022-08-31T22:44:12.331Z,22.72
2022-08-31T22:46:38.918Z,22.70
2022-08-31T22:49:06.072Z,22.71
2022-08-31T22:51:33.043Z,22.69
2022-08-31T22:53:59.518Z,22.70
2022-08-31T22:56:27.014Z,22.68
2022-08-31T22:58:54.179Z,22.68
2022-08-31T23:01:23.145Z,22.68
2022-08-31T23:03:51.141Z,22.68
2022-08-31T23:06:20.082Z,22.67
2022-08-31T23:08:47.145Z,22.67
2022-08-31T23:11:15.182Z,22.66
2022-08-31T23:13:57.374Z,22.67
2022-08-31T23:16:27.551Z,22.66
2022-08-31T23:18:55.427Z,22.66
2022-08-31T23:21:21.818Z,22.65
2022-08-31T23:23:48.410Z,22.65
2022-08-31T23:26:14.811Z,22.65
2022-08-31T23:28:41.170Z,22.65
2022-08-31T23:31:07.643Z,22.65
2022-08-31T23:33:34.560Z,22.63
2022-08-31T23:36:00.958Z,22.65
2022-08-31T23:38:27.354Z,22.64
2022-08-31T23:40:56.204Z,22.63
2022-08-31T23:43:29.960Z,22.63
2022-08-31T23:46:00.161Z,22.62
2022-08-31T23:48:26.565Z,22.61
2022-08-31T23:50:54.443Z,22.62
2022-08-31T23:53:21.144Z,22.61
2022-08-31T23:55:47.559Z,22.61
2022-08-31T23:58:14.078Z,22.61
